sensor_id;sensor_type;location;lat;lon;timestamp;pressure;altitude;pressure_sealevel;temperature;humidity
14882;BME280;7533;51.278;12.588;2023-01-26T00:02:01;100844.09;;;21.51;58.98
14882;BME280;7533;51.278;12.588;2023-01-26T00:07:04;100842.94;;;21.55;58.90
14882;BME280;7533;51.278;12.588;2023-01-26T00:12:08;100834.66;;;21.58;58.67
14882;BME280;7533;51.278;12.588;2023-01-26T00:17:11;100832.72;;;21.60;58.56
14882;BME280;7533;51.278;12.588;2023-01-26T00:22:14;100824.66;;;21.60;58.56
14882;BME280;7533;51.278;12.588;2023-01-26T00:27:18;100820.91;;;21.63;58.64
14882;BME280;7533;51.278;12.588;2023-01-26T00:32:20;100816.22;;;21.67;58.45
14882;BME280;7533;51.278;12.588;2023-01-26T00:37:23;100815.31;;;21.66;58.45
14882;BME280;7533;51.278;12.588;2023-01-26T00:42:27;100809.66;;;21.71;58.47
14882;BME280;7533;51.278;12.588;2023-01-26T00:47:30;100810.44;;;21.73;58.12
14882;BME280;7533;51.278;12.588;2023-01-26T00:52:33;100812.94;;;21.76;58.20
14882;BME280;7533;51.278;12.588;2023-01-26T00:57:37;100815.44;;;21.79;58.02
14882;BME280;7533;51.278;12.588;2023-01-26T01:02:40;100812.75;;;21.79;58.09
14882;BME280;7533;51.278;12.588;2023-01-26T01:07:44;100818.72;;;21.84;58.08
14882;BME280;7533;51.278;12.588;2023-01-26T01:12:48;100809.97;;;21.80;58.17
14882;BME280;7533;51.278;12.588;2023-01-26T01:17:51;100807.09;;;21.83;58.05
14882;BME280;7533;51.278;12.588;2023-01-26T01:22:54;100812.06;;;21.61;58.64
14882;BME280;7533;51.278;12.588;2023-01-26T01:27:58;100804.75;;;21.77;58.25
14882;BME280;7533;51.278;12.588;2023-01-26T01:33:01;100800.25;;;21.78;58.44
14882;BME280;7533;51.278;12.588;2023-01-26T01:38:04;100790.63;;;21.74;58.54
14882;BME280;7533;51.278;12.588;2023-01-26T01:43:10;100780.81;;;21.73;58.54
14882;BME280;7533;51.278;12.588;2023-01-26T01:48:22;100776.06;;;21.76;58.28
14882;BME280;7533;51.278;12.588;2023-01-26T01:53:29;100757.22;;;21.76;58.37
14882;BME280;7533;51.278;12.588;2023-01-26T01:58:36;100754.72;;;21.73;58.38
14882;BME280;7533;51.278;12.588;2023-01-26T02:03:43;100743.28;;;21.70;58.45
14882;BME280;7533;51.278;12.588;2023-01-26T02:08:50;100745.66;;;21.60;58.63
14882;BME280;7533;51.278;12.588;2023-01-26T02:13:55;100735.66;;;21.48;58.83
14882;BME280;7533;51.278;12.588;2023-01-26T02:18:59;100735.88;;;21.45;59.18
14882;BME280;7533;51.278;12.588;2023-01-26T02:24:08;100732.78;;;21.36;59.27
14882;BME280;7533;51.278;12.588;2023-01-26T02:29:14;100724.22;;;21.30;59.68
14882;BME280;7533;51.278;12.588;2023-01-26T02:34:17;100718.41;;;21.22;59.75
14882;BME280;7533;51.278;12.588;2023-01-26T02:39:29;100716.44;;;21.09;60.34
14882;BME280;7533;51.278;12.588;2023-01-26T02:44:38;100711.66;;;21.00;60.49
14882;BME280;7533;51.278;12.588;2023-01-26T02:49:43;100705.84;;;20.92;60.69
14882;BME280;7533;51.278;12.588;2023-01-26T02:54:52;100697.47;;;20.82;60.78
14882;BME280;7533;51.278;12.588;2023-01-26T03:00:18;100697.91;;;20.75;60.91
14882;BME280;7533;51.278;12.588;2023-01-26T03:05:24;100692.75;;;20.72;61.08
14882;BME280;7533;51.278;12.588;2023-01-26T03:10:28;100695.00;;;20.64;61.20
14882;BME280;7533;51.278;12.588;2023-01-26T03:15:32;100694.41;;;20.58;61.41
14882;BME280;7533;51.278;12.588;2023-01-26T03:20:45;100695.94;;;20.48;61.59
14882;BME280;7533;51.278;12.588;2023-01-26T03:26:08;100684.72;;;20.40;61.58
14882;BME280;7533;51.278;12.588;2023-01-26T03:31:30;100687.75;;;20.34;62.12
14882;BME280;7533;51.278;12.588;2023-01-26T03:36:33;100677.72;;;20.22;62.43
14882;BME280;7533;51.278;12.588;2023-01-26T03:41:42;100681.78;;;19.97;63.29
14882;BME280;7533;51.278;12.588;2023-01-26T03:47:04;100666.81;;;19.93;63.44
14882;BME280;7533;51.278;12.588;2023-01-26T03:52:25;100670.78;;;19.86;63.76
14882;BME280;7533;51.278;12.588;2023-01-26T03:57:46;100672.59;;;19.86;63.73
14882;BME280;7533;51.278;12.588;2023-01-26T04:02:51;100672.78;;;19.83;63.77
14882;BME280;7533;51.278;12.588;2023-01-26T04:08:11;100673.91;;;19.78;63.93
14882;BME280;7533;51.278;12.588;2023-01-26T04:13:35;100666.91;;;19.76;64.02
14882;BME280;7533;51.278;12.588;2023-01-26T04:19:02;100669.59;;;19.76;64.06
14882;BME280;7533;51.278;12.588;2023-01-26T04:24:23;100668.88;;;19.72;64.55
14882;BME280;7533;51.278;12.588;2023-01-26T04:29:30;100671.81;;;19.68;64.78
14882;BME280;7533;51.278;12.588;2023-01-26T04:34:35;100664.13;;;19.62;65.09
14882;BME280;7533;51.278;12.588;2023-01-26T04:39:45;100663.00;;;19.66;64.71
14882;BME280;7533;51.278;12.588;2023-01-26T04:44:49;100657.88;;;19.61;64.67
14882;BME280;7533;51.278;12.588;2023-01-26T04:49:53;100663.25;;;19.61;64.80
14882;BME280;7533;51.278;12.588;2023-01-26T04:54:57;100658.97;;;19.57;64.73
14882;BME280;7533;51.278;12.588;2023-01-26T05:00:03;100668.84;;;19.56;64.65
14882;BME280;7533;51.278;12.588;2023-01-26T05:05:08;100667.25;;;19.52;64.61
14882;BME280;7533;51.278;12.588;2023-01-26T05:10:11;100662.06;;;19.49;64.60
14882;BME280;7533;51.278;12.588;2023-01-26T05:15:50;100667.59;;;19.46;64.69
14882;BME280;7533;51.278;12.588;2023-01-26T05:21:15;100666.91;;;19.43;64.74
14882;BME280;7533;51.278;12.588;2023-01-26T05:26:22;100678.69;;;19.40;64.72
14882;BME280;7533;51.278;12.588;2023-01-26T05:31:35;100675.22;;;19.38;64.77
14882;BME280;7533;51.278;12.588;2023-01-26T05:36:41;100677.13;;;19.36;64.82
14882;BME280;7533;51.278;12.588;2023-01-26T05:41:44;100671.91;;;19.33;64.80
14882;BME280;7533;51.278;12.588;2023-01-26T05:47:16;100680.06;;;19.32;64.93
14882;BME280;7533;51.278;12.588;2023-01-26T05:52:23;100672.06;;;19.30;64.95
14882;BME280;7533;51.278;12.588;2023-01-26T05:57:26;100673.03;;;19.29;64.97
14882;BME280;7533;51.278;12.588;2023-01-26T06:02:33;100671.38;;;19.26;65.00
14882;BME280;7533;51.278;12.588;2023-01-26T06:07:37;100670.56;;;19.24;65.00
14882;BME280;7533;51.278;12.588;2023-01-26T06:12:59;100670.66;;;19.23;65.01
14882;BME280;7533;51.278;12.588;2023-01-26T06:18:26;100680.63;;;19.21;65.12
14882;BME280;7533;51.278;12.588;2023-01-26T06:23:31;100685.13;;;19.20;65.27
14882;BME280;7533;51.278;12.588;2023-01-26T06:28:36;100686.94;;;19.20;65.09
14882;BME280;7533;51.278;12.588;2023-01-26T06:33:39;100683.56;;;19.16;65.37
14882;BME280;7533;51.278;12.588;2023-01-26T06:38:46;100683.66;;;19.15;65.19
14882;BME280;7533;51.278;12.588;2023-01-26T06:43:49;100689.88;;;19.15;65.16
14882;BME280;7533;51.278;12.588;2023-01-26T06:48:53;100687.28;;;19.14;65.04
14882;BME280;7533;51.278;12.588;2023-01-26T06:53:57;100698.94;;;19.13;65.12
14882;BME280;7533;51.278;12.588;2023-01-26T06:59:06;100697.22;;;19.12;65.12
14882;BME280;7533;51.278;12.588;2023-01-26T07:04:25;100698.16;;;19.11;65.18
14882;BME280;7533;51.278;12.588;2023-01-26T07:09:29;100689.34;;;19.09;65.21
14882;BME280;7533;51.278;12.588;2023-01-26T07:14:32;100699.34;;;19.05;65.23
14882;BME280;7533;51.278;12.588;2023-01-26T07:19:35;100691.53;;;19.00;65.29
14882;BME280;7533;51.278;12.588;2023-01-26T07:24:39;100691.44;;;19.02;65.32
14882;BME280;7533;51.278;12.588;2023-01-26T07:29:42;100682.63;;;19.00;65.24
14882;BME280;7533;51.278;12.588;2023-01-26T07:34:46;100670.25;;;18.97;65.42
14882;BME280;7533;51.278;12.588;2023-01-26T07:39:51;100664.09;;;18.95;65.27
14882;BME280;7533;51.278;12.588;2023-01-26T07:44:54;100667.72;;;18.94;65.36
14882;BME280;7533;51.278;12.588;2023-01-26T07:49:56;100662.44;;;18.93;65.30
14882;BME280;7533;51.278;12.588;2023-01-26T07:55:01;100665.03;;;18.94;65.36
14882;BME280;7533;51.278;12.588;2023-01-26T08:00:04;100666.09;;;18.92;65.44
14882;BME280;7533;51.278;12.588;2023-01-26T08:05:12;100668.78;;;19.08;65.19
14882;BME280;7533;51.278;12.588;2023-01-26T08:10:16;100665.25;;;19.40;64.53
14882;BME280;7533;51.278;12.588;2023-01-26T08:15:19;100670.25;;;19.64;63.83
14882;BME280;7533;51.278;12.588;2023-01-26T08:20:22;100668.63;;;19.77;63.52
14882;BME280;7533;51.278;12.588;2023-01-26T08:25:26;100674.41;;;17.97;47.41
14882;BME280;7533;51.278;12.588;2023-01-26T08:30:29;100689.47;;;15.01;45.89
14882;BME280;7533;51.278;12.588;2023-01-26T08:35:33;100694.41;;;13.17;48.05
14882;BME280;7533;51.278;12.588;2023-01-26T08:40:37;100686.25;;;14.91;48.90
14882;BME280;7533;51.278;12.588;2023-01-26T08:45:40;100692.03;;;16.63;48.45
14882;BME280;7533;51.278;12.588;2023-01-26T08:50:43;100683.00;;;17.27;49.41
14882;BME280;7533;51.278;12.588;2023-01-26T08:55:47;100685.66;;;17.66;49.96
14882;BME280;7533;51.278;12.588;2023-01-26T09:00:50;100695.81;;;17.97;50.63
14882;BME280;7533;51.278;12.588;2023-01-26T09:05:58;100701.00;;;18.19;51.46
14882;BME280;7533;51.278;12.588;2023-01-26T09:11:04;100697.28;;;18.41;52.16
14882;BME280;7533;51.278;12.588;2023-01-26T09:16:12;100686.56;;;18.58;52.98
14882;BME280;7533;51.278;12.588;2023-01-26T09:21:16;100691.25;;;18.72;53.43
14882;BME280;7533;51.278;12.588;2023-01-26T09:26:21;100702.13;;;18.86;53.97
14882;BME280;7533;51.278;12.588;2023-01-26T09:31:23;100705.03;;;18.99;54.46
14882;BME280;7533;51.278;12.588;2023-01-26T09:36:27;100701.94;;;19.07;54.87
14882;BME280;7533;51.278;12.588;2023-01-26T09:41:49;100706.84;;;19.16;55.10
14882;BME280;7533;51.278;12.588;2023-01-26T09:47:02;100709.03;;;19.25;55.43
14882;BME280;7533;51.278;12.588;2023-01-26T09:52:11;100700.66;;;19.31;55.72
14882;BME280;7533;51.278;12.588;2023-01-26T09:57:22;100688.63;;;19.38;55.93
14882;BME280;7533;51.278;12.588;2023-01-26T10:02:42;100685.47;;;19.47;56.26
14882;BME280;7533;51.278;12.588;2023-01-26T10:07:47;100682.34;;;19.55;56.40
14882;BME280;7533;51.278;12.588;2023-01-26T10:12:52;100677.72;;;19.59;56.47
14882;BME280;7533;51.278;12.588;2023-01-26T10:17:55;100672.88;;;19.65;56.58
14882;BME280;7533;51.278;12.588;2023-01-26T10:23:05;100674.16;;;19.74;56.60
14882;BME280;7533;51.278;12.588;2023-01-26T10:28:15;100674.63;;;19.82;56.81
14882;BME280;7533;51.278;12.588;2023-01-26T10:33:24;100670.78;;;19.86;56.86
14882;BME280;7533;51.278;12.588;2023-01-26T10:38:43;100682.13;;;19.91;57.19
14882;BME280;7533;51.278;12.588;2023-01-26T10:43:51;100674.63;;;19.98;57.30
14882;BME280;7533;51.278;12.588;2023-01-26T10:48:57;100668.97;;;20.02;57.36
14882;BME280;7533;51.278;12.588;2023-01-26T10:54:20;100665.34;;;20.03;57.38
14882;BME280;7533;51.278;12.588;2023-01-26T10:59:31;100655.19;;;20.08;57.52
14882;BME280;7533;51.278;12.588;2023-01-26T11:04:34;100655.88;;;20.12;57.54
14882;BME280;7533;51.278;12.588;2023-01-26T11:09:37;100656.47;;;20.17;57.56
14882;BME280;7533;51.278;12.588;2023-01-26T11:14:58;100656.31;;;20.20;57.63
14882;BME280;7533;51.278;12.588;2023-01-26T11:20:09;100645.28;;;20.25;57.54
14882;BME280;7533;51.278;12.588;2023-01-26T11:25:21;100647.69;;;20.29;57.81
14882;BME280;7533;51.278;12.588;2023-01-26T11:30:38;100636.78;;;20.32;57.74
14882;BME280;7533;51.278;12.588;2023-01-26T11:35:51;100626.63;;;20.38;57.84
14882;BME280;7533;51.278;12.588;2023-01-26T11:41:15;100631.69;;;20.42;57.70
14882;BME280;7533;51.278;12.588;2023-01-26T11:46:34;100621.75;;;20.44;57.77
14882;BME280;7533;51.278;12.588;2023-01-26T11:51:54;100621.75;;;20.44;57.95
14882;BME280;7533;51.278;12.588;2023-01-26T11:57:08;100612.56;;;20.48;58.02
14882;BME280;7533;51.278;12.588;2023-01-26T12:02:24;100607.00;;;20.51;58.15
14882;BME280;7533;51.278;12.588;2023-01-26T12:07:35;100604.03;;;20.56;58.00
14882;BME280;7533;51.278;12.588;2023-01-26T12:13:00;100594.91;;;20.58;58.06
14882;BME280;7533;51.278;12.588;2023-01-26T12:18:14;100592.91;;;20.62;58.16
14882;BME280;7533;51.278;12.588;2023-01-26T12:23:28;100588.22;;;20.66;58.08
14882;BME280;7533;51.278;12.588;2023-01-26T12:28:38;100569.28;;;20.67;58.17
14882;BME280;7533;51.278;12.588;2023-01-26T12:33:50;100560.25;;;20.68;58.16
14882;BME280;7533;51.278;12.588;2023-01-26T12:39:12;100561.00;;;20.70;58.33
14882;BME280;7533;51.278;12.588;2023-01-26T12:44:27;100552.88;;;20.72;58.37
14882;BME280;7533;51.278;12.588;2023-01-26T12:49:39;100548.13;;;20.75;58.40
14882;BME280;7533;51.278;12.588;2023-01-26T12:54:46;100546.25;;;20.77;58.41
14882;BME280;7533;51.278;12.588;2023-01-26T12:59:50;100548.84;;;20.79;58.17
14882;BME280;7533;51.278;12.588;2023-01-26T13:04:55;100557.66;;;20.81;58.38
14882;BME280;7533;51.278;12.588;2023-01-26T13:10:25;100549.50;;;20.82;58.31
14882;BME280;7533;51.278;12.588;2023-01-26T13:15:30;100553.06;;;20.83;58.39
14882;BME280;7533;51.278;12.588;2023-01-26T13:20:45;100545.66;;;20.86;58.52
14882;BME280;7533;51.278;12.588;2023-01-26T13:26:16;100556.41;;;20.86;58.41
14882;BME280;7533;51.278;12.588;2023-01-26T13:31:32;100555.38;;;20.89;58.64
14882;BME280;7533;51.278;12.588;2023-01-26T13:36:39;100558.72;;;20.93;58.50
14882;BME280;7533;51.278;12.588;2023-01-26T13:41:46;100547.00;;;20.94;58.52
14882;BME280;7533;51.278;12.588;2023-01-26T13:46:53;100553.25;;;20.94;58.42
14882;BME280;7533;51.278;12.588;2023-01-26T13:51:59;100547.66;;;20.97;58.57
14882;BME280;7533;51.278;12.588;2023-01-26T13:57:03;100561.00;;;20.99;58.75
14882;BME280;7533;51.278;12.588;2023-01-26T14:02:10;100553.72;;;21.01;58.66
14882;BME280;7533;51.278;12.588;2023-01-26T14:07:15;100554.59;;;21.01;58.51
14882;BME280;7533;51.278;12.588;2023-01-26T14:12:21;100552.66;;;21.03;58.58
14882;BME280;7533;51.278;12.588;2023-01-26T14:17:28;100546.13;;;21.07;58.69
14882;BME280;7533;51.278;12.588;2023-01-26T14:22:33;100543.72;;;21.17;58.78
14882;BME280;7533;51.278;12.588;2023-01-26T14:27:37;100551.00;;;21.15;59.09
14882;BME280;7533;51.278;12.588;2023-01-26T14:32:40;100556.41;;;21.15;59.27
14882;BME280;7533;51.278;12.588;2023-01-26T14:37:44;100559.66;;;21.20;59.36
14882;BME280;7533;51.278;12.588;2023-01-26T14:42:49;100563.03;;;21.24;59.48
14882;BME280;7533;51.278;12.588;2023-01-26T14:47:54;100570.03;;;21.26;59.53
14882;BME280;7533;51.278;12.588;2023-01-26T14:53:01;100573.44;;;21.30;59.49
14882;BME280;7533;51.278;12.588;2023-01-26T14:58:14;100574.78;;;21.37;59.62
14882;BME280;7533;51.278;12.588;2023-01-26T15:03:26;100563.91;;;21.38;59.89
14882;BME280;7533;51.278;12.588;2023-01-26T15:08:32;100564.56;;;21.42;60.00
14882;BME280;7533;51.278;12.588;2023-01-26T15:13:40;100562.81;;;21.55;59.71
14882;BME280;7533;51.278;12.588;2023-01-26T15:18:43;100559.63;;;21.63;59.55
14882;BME280;7533;51.278;12.588;2023-01-26T15:23:50;100557.84;;;21.76;59.10
14882;BME280;7533;51.278;12.588;2023-01-26T15:28:56;100571.56;;;21.86;58.81
14882;BME280;7533;51.278;12.588;2023-01-26T15:33:59;100570.97;;;21.95;58.75
14882;BME280;7533;51.278;12.588;2023-01-26T15:39:14;100569.09;;;22.10;58.22
14882;BME280;7533;51.278;12.588;2023-01-26T15:44:19;100566.34;;;22.24;58.05
14882;BME280;7533;51.278;12.588;2023-01-26T15:49:23;100570.31;;;22.31;57.87
14882;BME280;7533;51.278;12.588;2023-01-26T15:54:27;100566.22;;;22.38;57.56
14882;BME280;7533;51.278;12.588;2023-01-26T15:59:30;100588.38;;;22.43;57.40
14882;BME280;7533;51.278;12.588;2023-01-26T16:04:32;100580.72;;;22.50;57.18
14882;BME280;7533;51.278;12.588;2023-01-26T16:09:36;100585.97;;;22.39;57.54
14882;BME280;7533;51.278;12.588;2023-01-26T16:14:39;100579.34;;;22.57;57.35
14882;BME280;7533;51.278;12.588;2023-01-26T16:19:43;100579.75;;;22.64;57.24
14882;BME280;7533;51.278;12.588;2023-01-26T16:24:47;100581.50;;;22.65;57.43
14882;BME280;7533;51.278;12.588;2023-01-26T16:29:50;100572.97;;;22.71;57.34
14882;BME280;7533;51.278;12.588;2023-01-26T16:34:53;100567.69;;;22.69;57.35
14882;BME280;7533;51.278;12.588;2023-01-26T16:39:57;100565.66;;;22.73;57.38
14882;BME280;7533;51.278;12.588;2023-01-26T16:45:00;100581.28;;;22.68;57.67
14882;BME280;7533;51.278;12.588;2023-01-26T16:50:03;100572.41;;;22.66;57.71
14882;BME280;7533;51.278;12.588;2023-01-26T16:55:11;100575.78;;;22.69;57.56
14882;BME280;7533;51.278;12.588;2023-01-26T17:00:16;100575.47;;;22.74;57.61
14882;BME280;7533;51.278;12.588;2023-01-26T17:05:20;100570.38;;;22.82;57.35
14882;BME280;7533;51.278;12.588;2023-01-26T17:10:24;100569.94;;;22.76;57.49
14882;BME280;7533;51.278;12.588;2023-01-26T17:15:27;100574.13;;;22.54;58.81
14882;BME280;7533;51.278;12.588;2023-01-26T17:20:30;100567.69;;;22.69;59.29
14882;BME280;7533;51.278;12.588;2023-01-26T17:25:34;100582.91;;;22.58;59.04
14882;BME280;7533;51.278;12.588;2023-01-26T17:30:37;100589.66;;;22.38;59.09
14882;BME280;7533;51.278;12.588;2023-01-26T17:35:40;100586.88;;;22.39;57.64
14882;BME280;7533;51.278;12.588;2023-01-26T17:40:53;100583.31;;;22.52;57.65
14882;BME280;7533;51.278;12.588;2023-01-26T17:46:06;100593.88;;;22.42;57.32
14882;BME280;7533;51.278;12.588;2023-01-26T17:51:11;100588.63;;;22.13;58.11
14882;BME280;7533;51.278;12.588;2023-01-26T17:56:18;100592.75;;;22.32;57.78
14882;BME280;7533;51.278;12.588;2023-01-26T18:01:23;100591.84;;;22.46;57.50
14882;BME280;7533;51.278;12.588;2023-01-26T18:06:26;100599.16;;;22.43;57.54
14882;BME280;7533;51.278;12.588;2023-01-26T18:11:30;100599.66;;;22.23;57.59
14882;BME280;7533;51.278;12.588;2023-01-26T18:16:33;100600.22;;;22.28;57.25
14882;BME280;7533;51.278;12.588;2023-01-26T18:21:36;100597.28;;;22.31;56.90
14882;BME280;7533;51.278;12.588;2023-01-26T18:26:40;100596.63;;;22.28;56.55
14882;BME280;7533;51.278;12.588;2023-01-26T18:31:43;100603.78;;;22.29;56.23
14882;BME280;7533;51.278;12.588;2023-01-26T18:36:46;100609.38;;;22.26;55.87
14882;BME280;7533;51.278;12.588;2023-01-26T18:41:50;100597.81;;;22.24;55.82
14882;BME280;7533;51.278;12.588;2023-01-26T18:46:53;100597.53;;;22.28;55.47
14882;BME280;7533;51.278;12.588;2023-01-26T18:51:56;100593.41;;;22.23;55.32
14882;BME280;7533;51.278;12.588;2023-01-26T18:57:00;100601.69;;;22.20;55.32
14882;BME280;7533;51.278;12.588;2023-01-26T19:02:03;100607.19;;;22.18;54.97
14882;BME280;7533;51.278;12.588;2023-01-26T19:07:06;100614.75;;;22.26;54.75
14882;BME280;7533;51.278;12.588;2023-01-26T19:12:11;100615.06;;;22.21;54.74
14882;BME280;7533;51.278;12.588;2023-01-26T19:17:14;100613.22;;;22.22;54.42
14882;BME280;7533;51.278;12.588;2023-01-26T19:22:18;100596.09;;;22.23;54.29
14882;BME280;7533;51.278;12.588;2023-01-26T19:27:23;100592.22;;;22.27;53.87
14882;BME280;7533;51.278;12.588;2023-01-26T19:32:26;100593.94;;;22.28;53.71
14882;BME280;7533;51.278;12.588;2023-01-26T19:37:29;100593.84;;;22.29;53.68
14882;BME280;7533;51.278;12.588;2023-01-26T19:42:33;100593.06;;;22.27;53.48
14882;BME280;7533;51.278;12.588;2023-01-26T19:47:37;100600.97;;;22.30;53.04
14882;BME280;7533;51.278;12.588;2023-01-26T19:52:41;100598.47;;;22.27;53.31
14882;BME280;7533;51.278;12.588;2023-01-26T19:57:45;100600.09;;;22.30;53.00
14882;BME280;7533;51.278;12.588;2023-01-26T20:02:48;100597.72;;;22.25;53.14
14882;BME280;7533;51.278;12.588;2023-01-26T20:07:51;100598.59;;;22.38;52.77
14882;BME280;7533;51.278;12.588;2023-01-26T20:12:55;100599.81;;;22.34;52.62
14882;BME280;7533;51.278;12.588;2023-01-26T20:18:00;100601.88;;;22.16;53.10
14882;BME280;7533;51.278;12.588;2023-01-26T20:23:03;100603.53;;;22.19;53.29
14882;BME280;7533;51.278;12.588;2023-01-26T20:28:09;100607.94;;;22.20;53.17
14882;BME280;7533;51.278;12.588;2023-01-26T20:33:12;100603.00;;;22.27;53.20
14882;BME280;7533;51.278;12.588;2023-01-26T20:38:15;100606.34;;;22.17;53.30
14882;BME280;7533;51.278;12.588;2023-01-26T20:43:20;100606.53;;;22.14;53.35
14882;BME280;7533;51.278;12.588;2023-01-26T20:48:23;100602.25;;;22.25;52.91
14882;BME280;7533;51.278;12.588;2023-01-26T20:53:27;100609.38;;;22.26;53.05
14882;BME280;7533;51.278;12.588;2023-01-26T20:58:31;100601.38;;;22.24;52.86
14882;BME280;7533;51.278;12.588;2023-01-26T21:03:34;100609.66;;;22.21;52.87
14882;BME280;7533;51.278;12.588;2023-01-26T21:08:38;100612.72;;;22.29;52.65
14882;BME280;7533;51.278;12.588;2023-01-26T21:13:43;100608.09;;;22.31;52.53
14882;BME280;7533;51.278;12.588;2023-01-26T21:18:46;100603.13;;;22.38;52.12
14882;BME280;7533;51.278;12.588;2023-01-26T21:23:50;100609.78;;;22.20;52.96
14882;BME280;7533;51.278;12.588;2023-01-26T21:28:55;100607.50;;;22.13;53.84
14882;BME280;7533;51.278;12.588;2023-01-26T21:33:59;100604.38;;;22.20;54.08
14882;BME280;7533;51.278;12.588;2023-01-26T21:39:02;100607.84;;;22.22;54.19
14882;BME280;7533;51.278;12.588;2023-01-26T21:44:11;100603.81;;;22.14;54.48
14882;BME280;7533;51.278;12.588;2023-01-26T21:49:15;100610.34;;;22.25;54.44
14882;BME280;7533;51.278;12.588;2023-01-26T21:54:18;100606.34;;;22.17;54.73
14882;BME280;7533;51.278;12.588;2023-01-26T21:59:23;100609.97;;;22.16;55.00
14882;BME280;7533;51.278;12.588;2023-01-26T22:04:27;100603.16;;;22.11;55.14
14882;BME280;7533;51.278;12.588;2023-01-26T22:09:31;100607.28;;;22.16;54.96
14882;BME280;7533;51.278;12.588;2023-01-26T22:14:37;100596.19;;;22.21;55.15
14882;BME280;7533;51.278;12.588;2023-01-26T22:19:41;100593.75;;;22.31;54.74
14882;BME280;7533;51.278;12.588;2023-01-26T22:24:44;100602.22;;;22.12;55.27
14882;BME280;7533;51.278;12.588;2023-01-26T22:29:48;100601.69;;;22.20;55.57
14882;BME280;7533;51.278;12.588;2023-01-26T22:34:51;100600.09;;;22.17;55.55
14882;BME280;7533;51.278;12.588;2023-01-26T22:39:54;100600.28;;;22.14;55.73
14882;BME280;7533;51.278;12.588;2023-01-26T22:44:58;100606.34;;;22.03;55.84
14882;BME280;7533;51.278;12.588;2023-01-26T22:50:01;100603.16;;;22.11;56.03
14882;BME280;7533;51.278;12.588;2023-01-26T22:55:04;100596.53;;;22.02;56.26
14882;BME280;7533;51.278;12.588;2023-01-26T23:00:10;100600.81;;;21.92;56.42
14882;BME280;7533;51.278;12.588;2023-01-26T23:05:13;100592.53;;;21.95;56.50
14882;BME280;7533;51.278;12.588;2023-01-26T23:10:16;100599.75;;;21.95;56.66
14882;BME280;7533;51.278;12.588;2023-01-26T23:15:20;100590.69;;;21.96;56.65
14882;BME280;7533;51.278;12.588;2023-01-26T23:20:23;100589.34;;;21.88;56.88
14882;BME280;7533;51.278;12.588;2023-01-26T23:25:26;100601.19;;;22.00;56.70
14882;BME280;7533;51.278;12.588;2023-01-26T23:30:48;100601.25;;;21.99;56.80
14882;BME280;7533;51.278;12.588;2023-01-26T23:35:52;100601.56;;;21.94;56.87
14882;BME280;7533;51.278;12.588;2023-01-26T23:40:55;100601.25;;;21.99;56.79
14882;BME280;7533;51.278;12.588;2023-01-26T23:46:00;100606.31;;;21.90;56.96
14882;BME280;7533;51.278;12.588;2023-01-26T23:51:05;100598.22;;;21.90;57.25
14882;BME280;7533;51.278;12.588;2023-01-26T23:56:11;100592.38;;;21.84;57.40
